Aitkin, MN

1:36 PM CDT on October 31, 2014 (GMT -0500)
Aitkin Municipal / Steve Kurtz Field | Change Station
CLOSE
Current Station
Airport
Location: Aitkin,
Elevation: 1204 ft
Nearby Weather Stations

Elev 1204 ft 46.55 °N, 93.68 °W | Updated 23 minutes ago

Clear
Clear
39 °F
Feels Like 39 °F
N
0
Wind Variable Wind from North

Today
High -- | Low -- °F
--% Chance of Precip.
Yesterday
High -- | Low -- °F
Precip. -- in
7:55 AM 6:01 PM
First Quarter, 57% visible
Pressure 30.52 in
Visibility 10.0 miles
Clouds Clear
Dew Point 18 °F
Humidity 42%
Rainfall 0.00 in
Snow Depth Not available.
UV 3 out of 12
Pollen .10 out of 12
Air Quality Not available.
Flu Activity Not available.
METAR KAIT 311813Z AUTO 00000KT 10SM CLR 04/M08 A3052 RMK AO2

More Conditions Fewer Conditions

Pressure 30.52 in
Visibility 10.0 miles
Clouds Clear
Dew Point 18 °F
Humidity 42%
Rainfall 0.00 in
Snow Depth Not available.
UV 3 out of 12
Pollen .10 out of 12
Air Quality Not available.
Flu Activity Not available.
METAR KAIT 311813Z AUTO 00000KT 10SM CLR 04/M08 A3052 RMK AO2

More Conditions Fewer Conditions

10-Day Weather Forecast

Almanac

Astronomy

Oct. 31, 2014 Rise Set
Actual Time
Civil Twilight
Nautical Twilight
Astronomical Twilight
Moon
Length of Visible Light
Length of Day
Tomorrow will be .
, % of the Moon is Illuminated

Today's Extremes

State Highs State Lows

Community

WunderPhotos

Upload Photos

1,766,690 photos uploaded!

WunderBlogs® & News

Nearby

Air Quality

  Air Quality AQ Index Pollutant
Not available.

Snow Depth

Station Depth Elevation

Earthquake Activity

City Distance Mag. Time & Date
Minimum magnitude displayed is 2.5.

Coastal Water Temperatures

Place Temperature

Nearby Weather Stations